createdAt,value
2023-02-06T00:01:20.360Z,102975.22
2023-02-06T00:03:48.141Z,102976.91
2023-02-06T00:06:17.373Z,102972.56
2023-02-06T00:08:44.958Z,102968.81
2023-02-06T00:11:14.628Z,102979.09
2023-02-06T00:13:42.191Z,102975.03
2023-02-06T00:16:16.699Z,102974.50
2023-02-06T00:18:44.238Z,102979.19
2023-02-06T00:21:12.148Z,102981.13
2023-02-06T00:23:41.034Z,102987.53
2023-02-06T00:26:08.944Z,102978.75
2023-02-06T00:28:36.625Z,102979.09
2023-02-06T00:31:05.992Z,102981.66
2023-02-06T00:33:33.776Z,102985.72
2023-02-06T00:36:02.016Z,102993.38
2023-02-06T00:38:30.672Z,102990.16
2023-02-06T00:40:59.533Z,102996.97
2023-02-06T00:43:27.101Z,102999.06
2023-02-06T00:45:54.943Z,103008.41
2023-02-06T00:48:22.657Z,102997.13
2023-02-06T00:50:50.490Z,103006.59
2023-02-06T00:53:18.393Z,103018.75
2023-02-06T00:55:45.871Z,103015.19
2023-02-06T00:58:14.702Z,103016.97
2023-02-06T01:00:42.170Z,103014.94
2023-02-06T01:03:09.628Z,103016.88
2023-02-06T01:05:37.511Z,103010.69
2023-02-06T01:08:05.158Z,103019.63
2023-02-06T01:10:32.732Z,103015.34
2023-02-06T01:13:00.276Z,103021.81
2023-02-06T01:15:29.149Z,103021.34
2023-02-06T01:17:56.872Z,103027.03
2023-02-06T01:20:25.212Z,103019.00
2023-02-06T01:22:52.760Z,103021.50
2023-02-06T01:25:20.388Z,103010.56
2023-02-06T01:27:47.971Z,103022.31
2023-02-06T01:30:15.690Z,103024.69
2023-02-06T01:32:44.674Z,103025.81
2023-02-06T01:35:12.918Z,103015.59
2023-02-06T01:37:41.126Z,103013.94
2023-02-06T01:40:12.090Z,103012.50
2023-02-06T01:42:39.664Z,103023.25
2023-02-06T01:45:42.166Z,103019.19
2023-02-06T01:48:14.683Z,103025.50
2023-02-06T01:50:45.966Z,103017.63
2023-02-06T01:53:14.476Z,103017.63
2023-02-06T01:55:42.999Z,103020.25
2023-02-06T01:58:12.396Z,103012.88
2023-02-06T02:00:39.940Z,103020.63
2023-02-06T02:03:07.489Z,103004.19
2023-02-06T02:05:36.969Z,103013.41
2023-02-06T02:08:07.688Z,103010.06
2023-02-06T02:10:35.323Z,103014.44
2023-02-06T02:13:02.912Z,103013.59
2023-02-06T02:15:39.869Z,103004.47
2023-02-06T02:18:17.087Z,103014.31
2023-02-06T02:21:21.758Z,103005.31
2023-02-06T02:23:56.031Z,103004.22
2023-02-06T02:26:39.291Z,102998.34
2023-02-06T02:29:26.420Z,102994.44
2023-02-06T02:32:23.507Z,102993.50
2023-02-06T02:35:02.735Z,102995.53
2023-02-06T02:37:36.642Z,102988.31
2023-02-06T02:40:09.951Z,102993.53
2023-02-06T02:42:41.560Z,102983.94
2023-02-06T02:45:13.674Z,102984.53
2023-02-06T02:47:45.644Z,102974.69
2023-02-06T02:50:15.806Z,102972.50
2023-02-06T02:52:43.472Z,102984.16
2023-02-06T02:55:19.198Z,102987.06
2023-02-06T02:57:47.737Z,102984.94
2023-02-06T03:00:17.579Z,102981.88
2023-02-06T03:02:46.883Z,102982.09
2023-02-06T03:05:18.238Z,102996.91
2023-02-06T03:07:48.588Z,102995.72
2023-02-06T03:10:21.283Z,102992.44
2023-02-06T03:12:51.295Z,103005.41
2023-02-06T03:15:25.277Z,103008.75
2023-02-06T03:17:57.056Z,103010.47
2023-02-06T03:20:26.514Z,103015.75
2023-02-06T03:22:54.769Z,103017.91
2023-02-06T03:25:28.434Z,103013.34
2023-02-06T03:27:56.999Z,103013.28
2023-02-06T03:30:25.452Z,103009.56
2023-02-06T03:32:55.610Z,102996.53
2023-02-06T03:35:26.477Z,102998.38
2023-02-06T03:37:54.432Z,103000.34
2023-02-06T03:40:22.498Z,103005.13
2023-02-06T03:42:52.904Z,103006.28
2023-02-06T03:45:24.184Z,103014.34
2023-02-06T03:47:52.848Z,103015.13
2023-02-06T03:50:20.773Z,103017.28
2023-02-06T03:52:51.340Z,103003.66
2023-02-06T03:55:21.857Z,103015.28
2023-02-06T03:57:52.734Z,103010.03
2023-02-06T04:00:20.622Z,103008.94
2023-02-06T04:02:48.571Z,103000.34
2023-02-06T04:05:16.721Z,103001.06
2023-02-06T04:07:44.309Z,103004.66
2023-02-06T04:10:13.135Z,103016.06
2023-02-06T04:12:40.610Z,103014.69
2023-02-06T04:15:08.879Z,103009.06
2023-02-06T04:17:53.481Z,102995.47
2023-02-06T04:20:23.784Z,103005.31
2023-02-06T04:22:51.476Z,103003.63
2023-02-06T04:25:20.422Z,103002.94
2023-02-06T04:27:47.918Z,103003.31
2023-02-06T04:30:17.255Z,103011.69
2023-02-06T04:32:44.864Z,103024.91
2023-02-06T04:35:12.394Z,103025.06
2023-02-06T04:37:39.879Z,103024.22
2023-02-06T04:40:07.997Z,103023.91
2023-02-06T04:42:36.900Z,103027.47
2023-02-06T04:45:04.779Z,103025.31
2023-02-06T04:47:32.270Z,103018.78
2023-02-06T04:49:59.731Z,103014.78
2023-02-06T04:52:27.296Z,103011.34
2023-02-06T04:54:54.844Z,103017.47
2023-02-06T04:57:23.602Z,103015.22
2023-02-06T04:59:52.477Z,103018.50
2023-02-06T05:02:19.988Z,103008.16
2023-02-06T05:04:47.466Z,103017.00
2023-02-06T05:07:15.015Z,103022.13
2023-02-06T05:09:42.492Z,103024.91
2023-02-06T05:12:10.019Z,103022.66
2023-02-06T05:14:37.461Z,103027.00
2023-02-06T05:17:06.257Z,103021.34
2023-02-06T05:19:33.742Z,103011.28
2023-02-06T05:22:01.229Z,103015.25
2023-02-06T05:24:29.189Z,103022.16
2023-02-06T05:26:58.317Z,103032.69
2023-02-06T05:29:26.293Z,103025.97
2023-02-06T05:31:53.857Z,103019.13
2023-02-06T05:34:22.796Z,103018.41
2023-02-06T05:36:50.402Z,103016.75
2023-02-06T05:39:18.067Z,103020.34
2023-02-06T05:41:45.536Z,103017.38
2023-02-06T05:44:13.053Z,103020.47
2023-02-06T05:46:40.545Z,103007.53
2023-02-06T05:49:08.197Z,103010.41
2023-02-06T05:51:37.032Z,103016.88
2023-02-06T05:54:04.897Z,103019.00
2023-02-06T05:56:32.489Z,103014.13
2023-02-06T05:58:59.971Z,103015.00
2023-02-06T06:01:29.104Z,103016.97
2023-02-06T06:03:56.797Z,103006.59
2023-02-06T06:06:24.300Z,103005.63
2023-02-06T06:08:53.164Z,103001.47
2023-02-06T06:11:20.940Z,102995.75
2023-02-06T06:13:48.405Z,103003.56
2023-02-06T06:16:15.935Z,103011.44
2023-02-06T06:18:43.467Z,103002.66
2023-02-06T06:21:10.931Z,102999.28
2023-02-06T06:23:38.412Z,102993.34
2023-02-06T06:26:07.361Z,103000.13
2023-02-06T06:28:35.932Z,102991.44
2023-02-06T06:31:03.959Z,102989.31
2023-02-06T06:33:31.478Z,102997.41
2023-02-06T06:35:59.051Z,103003.34
2023-02-06T06:38:26.643Z,103012.06
2023-02-06T06:40:54.101Z,103003.69
2023-02-06T06:43:23.083Z,103003.81
2023-02-06T06:45:50.628Z,103021.50
2023-02-06T06:48:18.237Z,103020.50
2023-02-06T06:50:45.791Z,103014.91
2023-02-06T06:53:13.351Z,103011.47
2023-02-06T06:55:40.820Z,103019.28
2023-02-06T06:58:09.780Z,103010.41
2023-02-06T07:00:39.898Z,103025.97
2023-02-06T07:03:11.601Z,103029.34
2023-02-06T07:05:39.720Z,103022.06
2023-02-06T07:08:08.393Z,103020.88
2023-02-06T07:10:35.878Z,103014.19
2023-02-06T07:13:03.497Z,103015.06
2023-02-06T07:15:35.486Z,103014.69
2023-02-06T07:18:07.258Z,103025.53
2023-02-06T07:20:34.778Z,103024.59
2023-02-06T07:23:02.354Z,103021.50
2023-02-06T07:25:29.896Z,103022.31
2023-02-06T07:27:57.449Z,103017.47
2023-02-06T07:30:25.002Z,103011.03
2023-02-06T07:32:52.471Z,103023.28
2023-02-06T07:35:21.284Z,103012.50
2023-02-06T07:37:48.784Z,103006.88
2023-02-06T07:40:16.328Z,103016.47
2023-02-06T07:42:43.806Z,103009.25
2023-02-06T07:45:11.421Z,103013.44
2023-02-06T07:47:38.897Z,103014.31
2023-02-06T07:50:06.952Z,103008.16
2023-02-06T07:52:35.963Z,103006.59
2023-02-06T07:55:03.446Z,103020.38
2023-02-06T07:57:30.983Z,103013.03
2023-02-06T07:59:58.475Z,103009.22
2023-02-06T08:02:25.971Z,103014.16
2023-02-06T08:04:53.449Z,103021.19
2023-02-06T08:07:20.881Z,103022.78
2023-02-06T08:09:49.760Z,103025.69
2023-02-06T08:12:17.229Z,103032.44
2023-02-06T08:14:45.815Z,103033.97
2023-02-06T08:17:13.531Z,103038.84
2023-02-06T08:19:41.012Z,103029.97
2023-02-06T08:22:10.700Z,103035.06
2023-02-06T08:24:38.376Z,103029.59
2023-02-06T08:27:07.725Z,103022.31
2023-02-06T08:29:40.276Z,103027.44
2023-02-06T08:32:07.732Z,103025.19
2023-02-06T08:34:36.409Z,103016.88
2023-02-06T08:37:04.061Z,103014.97
2023-02-06T08:39:31.946Z,103012.00
2023-02-06T08:41:59.502Z,103012.88
2023-02-06T08:44:28.566Z,103018.06
2023-02-06T08:47:08.900Z,103015.06
2023-02-06T08:49:38.633Z,103017.94
2023-02-06T08:52:06.681Z,103017.16
2023-02-06T08:54:36.311Z,103026.00
2023-02-06T08:57:06.567Z,103020.66
2023-02-06T08:59:35.655Z,103024.16
2023-02-06T09:02:03.264Z,103010.56
2023-02-06T09:04:31.696Z,103010.56
2023-02-06T09:06:59.172Z,103005.22
2023-02-06T09:09:26.745Z,103003.31
2023-02-06T09:11:55.368Z,103002.91
2023-02-06T09:14:22.903Z,103004.63
2023-02-06T09:16:51.828Z,103009.13
2023-02-06T09:19:19.323Z,103012.09
2023-02-06T09:21:46.812Z,103007.59
2023-02-06T09:24:14.394Z,103011.59
2023-02-06T09:26:58.461Z,103001.16
2023-02-06T09:29:28.963Z,103008.03
2023-02-06T09:31:58.157Z,103013.38
2023-02-06T09:34:26.260Z,103021.03
2023-02-06T09:36:54.993Z,103021.50
2023-02-06T09:39:22.622Z,103021.16
2023-02-06T09:41:52.060Z,103022.69
2023-02-06T09:44:21.964Z,103020.47
2023-02-06T09:46:52.128Z,103014.50
2023-02-06T09:49:24.053Z,103002.09
2023-02-06T09:52:01.093Z,103013.41
2023-02-06T09:54:33.773Z,103010.94
2023-02-06T09:57:06.590Z,103010.00
2023-02-06T09:59:38.943Z,103013.75
2023-02-06T10:02:23.705Z,103010.78
2023-02-06T10:04:56.567Z,103011.34
2023-02-06T10:07:33.969Z,103002.63
2023-02-06T10:10:05.008Z,103000.97
2023-02-06T10:12:38.828Z,102997.44
2023-02-06T10:15:13.846Z,102998.69
2023-02-06T10:17:49.748Z,102998.53
2023-02-06T10:20:20.407Z,102992.41
2023-02-06T10:22:55.107Z,102986.88
2023-02-06T10:25:25.229Z,102986.78
2023-02-06T10:27:58.151Z,102971.56
2023-02-06T10:30:34.290Z,102972.91
2023-02-06T10:33:11.825Z,102977.00
2023-02-06T10:35:51.739Z,102976.25
2023-02-06T10:38:50.889Z,102970.03
2023-02-06T10:41:26.324Z,102957.44
2023-02-06T10:43:57.086Z,102968.94
2023-02-06T10:46:43.078Z,102949.59
2023-02-06T10:49:17.685Z,102946.72
2023-02-06T10:51:49.049Z,102949.19
2023-02-06T10:54:20.735Z,102947.41
2023-02-06T10:56:48.915Z,102942.22
2023-02-06T10:59:24.678Z,102935.72
2023-02-06T11:01:54.976Z,102927.56
2023-02-06T11:04:28.140Z,102928.97
2023-02-06T11:07:01.766Z,102917.97
2023-02-06T11:09:30.895Z,102923.63
2023-02-06T11:11:59.656Z,102917.09
2023-02-06T11:14:29.369Z,102928.28
2023-02-06T11:17:00.139Z,102909.91
2023-02-06T11:19:30.260Z,102915.97
2023-02-06T11:22:10.154Z,102913.72
2023-02-06T11:24:38.825Z,102908.53
2023-02-06T11:27:15.902Z,102901.09
2023-02-06T11:29:46.835Z,102895.34
2023-02-06T11:32:28.949Z,102899.00
2023-02-06T11:34:58.763Z,102899.47
2023-02-06T11:37:35.029Z,102893.44
2023-02-06T11:40:24.838Z,102880.31
2023-02-06T11:42:53.689Z,102880.50
2023-02-06T11:45:26.372Z,102892.69
2023-02-06T11:47:54.074Z,102877.41
2023-02-06T11:50:25.608Z,102878.66
2023-02-06T11:53:00.133Z,102872.25
2023-02-06T11:55:30.117Z,102875.19
2023-02-06T11:58:07.718Z,102872.44
2023-02-06T12:00:38.045Z,102876.88
2023-02-06T12:03:06.081Z,102870.75
2023-02-06T12:05:36.654Z,102863.38
2023-02-06T12:08:08.683Z,102864.16
2023-02-06T12:10:39.302Z,102865.47
2023-02-06T12:13:10.024Z,102862.53
2023-02-06T12:15:46.938Z,102853.47
2023-02-06T12:18:17.141Z,102841.97
2023-02-06T12:20:50.361Z,102841.69
2023-02-06T12:23:23.172Z,102838.56
2023-02-06T12:25:52.480Z,102831.66
2023-02-06T12:28:22.978Z,102831.16
2023-02-06T12:30:55.843Z,102835.16
2023-02-06T12:33:33.036Z,102828.91
2023-02-06T12:36:05.873Z,102832.78
2023-02-06T12:38:41.817Z,102838.06
2023-02-06T12:41:23.677Z,102829.84
2023-02-06T12:43:54.510Z,102828.03
2023-02-06T12:46:24.055Z,102825.38
2023-02-06T12:48:54.840Z,102817.06
2023-02-06T12:51:26.375Z,102813.94
2023-02-06T12:53:58.154Z,102812.16
2023-02-06T12:56:29.288Z,102806.00
2023-02-06T12:59:06.908Z,102803.06
2023-02-06T13:01:43.457Z,102804.38
2023-02-06T13:04:14.110Z,102800.63
2023-02-06T13:06:47.400Z,102809.47
2023-02-06T13:09:21.164Z,102800.41
2023-02-06T13:11:48.729Z,102802.31
2023-02-06T13:14:21.770Z,102792.47
2023-02-06T13:16:56.103Z,102801.34
2023-02-06T13:19:30.029Z,102804.94
2023-02-06T13:22:45.148Z,102804.13
2023-02-06T13:25:49.793Z,102819.03
2023-02-06T13:28:58.761Z,102802.81
2023-02-06T13:31:35.444Z,102804.25
2023-02-06T13:34:07.120Z,102797.53
2023-02-06T13:36:49.122Z,102800.19
2023-02-06T13:39:28.980Z,102799.78
2023-02-06T13:42:00.922Z,102794.28
2023-02-06T13:44:31.402Z,102784.56
2023-02-06T13:47:29.220Z,102801.50
2023-02-06T13:50:17.691Z,102804.50
2023-02-06T13:52:51.555Z,102802.78
2023-02-06T13:55:31.360Z,102798.03
2023-02-06T13:58:21.466Z,102796.97
2023-02-06T14:00:50.689Z,102801.56
2023-02-06T14:03:23.713Z,102796.97
2023-02-06T14:05:55.971Z,102806.63
2023-02-06T14:08:27.631Z,102798.16
2023-02-06T14:11:25.263Z,102802.06
2023-02-06T14:14:17.596Z,102799.53
2023-02-06T14:16:52.525Z,102788.53
2023-02-06T14:19:26.780Z,102799.56
2023-02-06T14:22:02.391Z,102791.63
2023-02-06T14:24:41.925Z,102797.44
2023-02-06T14:27:21.013Z,102780.06
2023-02-06T14:29:55.464Z,102781.91
2023-02-06T14:32:34.478Z,102782.94
2023-02-06T14:35:28.736Z,102784.84
2023-02-06T14:38:26.049Z,102785.16
2023-02-06T14:40:55.156Z,102782.72
2023-02-06T14:43:24.713Z,102783.75
2023-02-06T14:46:06.985Z,102783.75
2023-02-06T14:48:39.794Z,102789.06
2023-02-06T14:51:07.942Z,102786.31
2023-02-06T14:53:38.110Z,102774.88
2023-02-06T14:56:08.047Z,102776.56
2023-02-06T14:58:35.700Z,102766.75
2023-02-06T15:01:20.400Z,102763.91
2023-02-06T15:03:49.263Z,102760.28
2023-02-06T15:06:30.792Z,102761.56
2023-02-06T15:08:58.458Z,102760.81
2023-02-06T15:11:32.234Z,102759.22
2023-02-06T15:14:02.511Z,102760.69
2023-02-06T15:16:32.908Z,102761.97
2023-02-06T15:19:20.245Z,102765.66
2023-02-06T15:21:48.141Z,102752.63
2023-02-06T15:24:37.674Z,102758.16
2023-02-06T15:27:10.051Z,102751.59
2023-02-06T15:29:38.118Z,102743.75
2023-02-06T15:32:14.374Z,102759.09
2023-02-06T15:34:44.981Z,102756.94
2023-02-06T15:37:23.456Z,102762.44
2023-02-06T15:39:51.248Z,102756.53
2023-02-06T15:42:19.421Z,102763.50
2023-02-06T15:44:47.377Z,102749.75
2023-02-06T15:47:19.252Z,102769.00
2023-02-06T15:49:49.122Z,102768.25
2023-02-06T15:52:33.099Z,102764.69
2023-02-06T15:55:01.155Z,102760.53
2023-02-06T15:57:30.675Z,102761.69
2023-02-06T15:59:58.399Z,102761.06
2023-02-06T16:02:32.683Z,102760.19
2023-02-06T16:05:00.390Z,102760.19
2023-02-06T16:07:30.662Z,102765.69
2023-02-06T16:10:03.827Z,102774.84
2023-02-06T16:12:34.154Z,102777.88
2023-02-06T16:15:03.367Z,102782.22
2023-02-06T16:17:34.809Z,102787.81
2023-02-06T16:20:04.492Z,102785.44
2023-02-06T16:22:33.621Z,102784.81
2023-02-06T16:25:19.674Z,102788.38
2023-02-06T16:27:48.038Z,102785.22
2023-02-06T16:30:25.474Z,102794.25
2023-02-06T16:32:55.531Z,102792.69
2023-02-06T16:35:23.588Z,102805.03
2023-02-06T16:37:52.397Z,102807.53
2023-02-06T16:40:20.169Z,102805.41
2023-02-06T16:42:48.041Z,102808.38
2023-02-06T16:45:18.996Z,102805.94
2023-02-06T16:47:46.896Z,102809.41
2023-02-06T16:50:16.758Z,102812.25
2023-02-06T16:52:48.492Z,102806.75
2023-02-06T16:55:17.850Z,102812.25
2023-02-06T16:57:46.858Z,102819.53
2023-02-06T17:00:19.671Z,102819.53
2023-02-06T17:02:47.273Z,102815.06
2023-02-06T17:05:16.779Z,102811.78
2023-02-06T17:07:44.508Z,102815.16
2023-02-06T17:10:14.015Z,102812.63
2023-02-06T17:12:42.771Z,102813.75
2023-02-06T17:15:11.467Z,102812.91
2023-02-06T17:17:39.198Z,102813.50
2023-02-06T17:20:08.165Z,102813.41
2023-02-06T17:22:37.236Z,102814.34
2023-02-06T17:25:05.068Z,102815.75
2023-02-06T17:27:32.545Z,102804.53
2023-02-06T17:30:00.120Z,102813.41
2023-02-06T17:32:27.859Z,102808.13
2023-02-06T17:34:58.092Z,102806.63
2023-02-06T17:37:25.597Z,102816.34
2023-02-06T17:39:54.396Z,102812.28
2023-02-06T17:42:24.137Z,102813.09
2023-02-06T17:44:51.809Z,102809.84
2023-02-06T17:47:19.305Z,102815.09
2023-02-06T17:49:47.610Z,102803.03
2023-02-06T17:52:15.548Z,102803.88
2023-02-06T17:54:43.211Z,102793.69
2023-02-06T17:57:13.393Z,102795.03
2023-02-06T17:59:41.050Z,102808.88
2023-02-06T18:02:10.198Z,102809.25
2023-02-06T18:04:40.593Z,102806.34
2023-02-06T18:07:08.715Z,102807.28
2023-02-06T18:09:36.382Z,102810.19
2023-02-06T18:12:04.254Z,102802.00
2023-02-06T18:14:35.306Z,102805.59
2023-02-06T18:17:05.141Z,102806.63
2023-02-06T18:19:41.529Z,102816.69
2023-02-06T18:22:09.692Z,102823.97
2023-02-06T18:24:37.606Z,102817.47
2023-02-06T18:27:05.945Z,102821.16
2023-02-06T18:29:48.508Z,102823.66
2023-02-06T18:32:17.780Z,102829.25
2023-02-06T18:34:48.809Z,102821.03
2023-02-06T18:37:16.468Z,102821.31
2023-02-06T18:39:44.229Z,102815.38
2023-02-06T18:42:29.948Z,102817.34
2023-02-06T18:44:58.935Z,102809.63
2023-02-06T18:47:26.977Z,102807.91
2023-02-06T18:49:54.657Z,102811.03
2023-02-06T18:52:22.340Z,102811.31
2023-02-06T18:54:50.978Z,102812.69
2023-02-06T18:57:18.467Z,102815.63
2023-02-06T18:59:45.980Z,102796.38
2023-02-06T19:02:14.894Z,102805.72
2023-02-06T19:04:42.487Z,102812.97
2023-02-06T19:07:11.574Z,102809.88
2023-02-06T19:09:39.126Z,102821.78
2023-02-06T19:12:07.225Z,102825.69
2023-02-06T19:14:35.324Z,102830.13
2023-02-06T19:17:02.927Z,102832.88
2023-02-06T19:19:32.003Z,102833.22
2023-02-06T19:21:59.767Z,102840.44
2023-02-06T19:24:28.286Z,102837.06
2023-02-06T19:26:58.413Z,102835.69
2023-02-06T19:29:35.115Z,102849.56
2023-02-06T19:32:03.672Z,102851.75
2023-02-06T19:34:36.211Z,102856.47
2023-02-06T19:37:04.452Z,102852.97
2023-02-06T19:39:34.063Z,102848.91
2023-02-06T19:42:01.900Z,102860.13
2023-02-06T19:44:29.675Z,102878.47
2023-02-06T19:47:00.827Z,102875.34
2023-02-06T19:49:29.171Z,102883.03
2023-02-06T19:51:58.098Z,102898.16
2023-02-06T19:54:25.965Z,102895.09
2023-02-06T19:56:54.177Z,102906.38
2023-02-06T19:59:22.790Z,102918.03
2023-02-06T20:01:52.031Z,102920.16
2023-02-06T20:04:20.527Z,102921.44
2023-02-06T20:06:50.119Z,102923.75
2023-02-06T20:09:20.972Z,102931.56
2023-02-06T20:11:49.350Z,102933.56
2023-02-06T20:14:17.527Z,102930.34
2023-02-06T20:16:45.921Z,102929.63
2023-02-06T20:19:17.430Z,102919.97
2023-02-06T20:21:47.723Z,102925.38
2023-02-06T20:24:18.422Z,102921.03
2023-02-06T20:26:48.888Z,102922.38
2023-02-06T20:29:20.507Z,102924.75
2023-02-06T20:31:48.613Z,102922.44
2023-02-06T20:34:16.748Z,102922.91
2023-02-06T20:36:44.833Z,102916.41
2023-02-06T20:39:14.225Z,102921.22
2023-02-06T20:41:42.243Z,102920.59
2023-02-06T20:44:13.735Z,102919.72
2023-02-06T20:46:42.719Z,102929.28
2023-02-06T20:49:14.499Z,102927.38
2023-02-06T20:51:43.784Z,102925.63
2023-02-06T20:54:12.376Z,102923.22
2023-02-06T20:56:40.443Z,102925.53
2023-02-06T20:59:08.397Z,102913.94
2023-02-06T21:01:38.776Z,102910.63
2023-02-06T21:04:09.220Z,102912.47
2023-02-06T21:06:38.459Z,102916.34
2023-02-06T21:09:06.871Z,102922.59
2023-02-06T21:11:36.642Z,102911.31
2023-02-06T21:14:05.673Z,102917.47
2023-02-06T21:16:34.406Z,102913.94
2023-02-06T21:19:04.575Z,102908.84
2023-02-06T21:21:32.418Z,102909.59
2023-02-06T21:24:00.126Z,102905.13
2023-02-06T21:26:29.249Z,102902.72
2023-02-06T21:28:58.254Z,102912.53
2023-02-06T21:31:34.155Z,102903.81
2023-02-06T21:34:07.186Z,102911.84
2023-02-06T21:36:35.892Z,102923.13
2023-02-06T21:39:04.463Z,102927.47
2023-02-06T21:41:32.249Z,102919.88
2023-02-06T21:44:00.056Z,102925.13
2023-02-06T21:46:30.255Z,102916.38
2023-02-06T21:48:57.913Z,102917.47
2023-02-06T21:51:26.799Z,102921.66
2023-02-06T21:53:54.395Z,102927.75
2023-02-06T21:56:23.714Z,102933.31
2023-02-06T21:58:51.977Z,102934.19
2023-02-06T22:01:20.955Z,102943.69
2023-02-06T22:03:49.057Z,102941.13
2023-02-06T22:06:19.700Z,102929.00
2023-02-06T22:08:51.745Z,102925.28
2023-02-06T22:11:22.102Z,102925.44
2023-02-06T22:13:50.482Z,102926.53
2023-02-06T22:16:20.541Z,102917.63
2023-02-06T22:18:48.460Z,102906.50
2023-02-06T22:21:17.590Z,102916.53
2023-02-06T22:23:46.281Z,102922.72
2023-02-06T22:26:17.015Z,102927.19
2023-02-06T22:28:47.111Z,102927.19
2023-02-06T22:31:16.515Z,102931.56
2023-02-06T22:33:46.885Z,102930.31
2023-02-06T22:36:17.290Z,102924.13
2023-02-06T22:38:46.067Z,102921.19
2023-02-06T22:41:17.822Z,102930.13
2023-02-06T22:43:46.610Z,102916.97
2023-02-06T22:46:20.682Z,102919.75
2023-02-06T22:48:48.466Z,102918.84
2023-02-06T22:51:16.449Z,102914.66
2023-02-06T22:53:44.327Z,102923.47
2023-02-06T22:56:29.508Z,102923.31
2023-02-06T22:59:00.100Z,102921.69
2023-02-06T23:01:31.863Z,102928.56
2023-02-06T23:04:00.464Z,102934.53
2023-02-06T23:06:31.132Z,102931.06
2023-02-06T23:08:59.368Z,102924.78
2023-02-06T23:11:28.391Z,102934.19
2023-02-06T23:14:00.173Z,102927.06
2023-02-06T23:16:28.879Z,102935.66
2023-02-06T23:18:56.697Z,102931.63
2023-02-06T23:21:27.230Z,102931.47
2023-02-06T23:23:55.423Z,102944.41
2023-02-06T23:26:23.575Z,102940.13
2023-02-06T23:28:51.248Z,102946.22
2023-02-06T23:31:23.799Z,102947.94
2023-02-06T23:33:51.514Z,102934.84
2023-02-06T23:36:20.779Z,102936.97
2023-02-06T23:38:48.775Z,102924.19
2023-02-06T23:41:18.438Z,102922.66
2023-02-06T23:43:50.573Z,102929.97
2023-02-06T23:46:19.797Z,102928.34
2023-02-06T23:48:49.400Z,102932.75
2023-02-06T23:51:17.644Z,102938.06
2023-02-06T23:53:45.192Z,102941.72
2023-02-06T23:56:13.388Z,102941.06
2023-02-06T23:58:40.860Z,102926.38
